Newtonville, New Jersey
Current Conditions -  °F | °C
As of 6:54 PM on Monday 24 Nov 2014 (Local Time) from KACY Reporting Station
Clear Clear  
Wind Chill: 61°   Ceiling: Unl
Heat Index: 61°   Visibility: 10mi
Dew Point: 57°   Wind: 12mph
Humidity: 87%   Direction: 200°SSW
Pressure: 29.74"   Gusts: NA
Location:  39.61°N, 74.8°W
Report Text: KACY 242354Z 20010KT 10SM CLR 16/14 A2974 RMK AO2 SLP069 T01610139 10217 20161 51019
Loading
Personal Weather Stations






























Interactive Weather Map New forecast layout! Learn more

10-Day Weather Forecast

Advertisements
Track Severe Weather on mobile